createdAt,value
2019-05-02T00:00:35.987Z,0.00
2019-05-02T00:01:37.267Z,0.00
2019-05-02T00:02:35.977Z,0.00
2019-05-02T00:03:40.764Z,0.00
2019-05-02T00:04:36.963Z,0.00
2019-05-02T00:05:37.214Z,0.00
2019-05-02T00:06:38.124Z,0.00
2019-05-02T00:07:36.909Z,0.00
2019-05-02T00:08:35.943Z,0.00
2019-05-02T00:09:37.232Z,0.00
2019-05-02T00:10:35.881Z,0.00
2019-05-02T00:11:35.867Z,0.00
2019-05-02T00:12:35.880Z,0.00
2019-05-02T00:13:35.839Z,0.00
2019-05-02T00:14:37.257Z,0.00
2019-05-02T00:15:38.288Z,0.00
2019-05-02T00:16:35.832Z,0.00
2019-05-02T00:17:35.797Z,0.00
2019-05-02T00:18:37.230Z,0.00
2019-05-02T00:19:37.233Z,0.00
2019-05-02T00:20:35.761Z,0.00
2019-05-02T00:21:38.161Z,0.00
2019-05-02T00:22:35.789Z,0.00
2019-05-02T00:23:35.727Z,0.00
2019-05-02T00:24:39.228Z,0.00
2019-05-02T00:25:38.246Z,0.00
2019-05-02T00:26:35.689Z,0.00
2019-05-02T00:27:37.798Z,0.00
2019-05-02T00:28:35.675Z,0.00
2019-05-02T00:29:35.693Z,0.00
2019-05-02T00:30:36.128Z,0.00
2019-05-02T00:31:35.711Z,0.00
2019-05-02T00:32:35.655Z,0.00
2019-05-02T00:33:35.918Z,0.00
2019-05-02T00:34:35.611Z,0.00
2019-05-02T00:35:35.591Z,0.00
2019-05-02T00:36:35.594Z,0.00
2019-05-02T00:37:35.602Z,0.00
2019-05-02T00:38:38.434Z,0.00
2019-05-02T00:39:35.547Z,0.00
2019-05-02T00:40:35.613Z,0.00
2019-05-02T00:41:38.383Z,0.00
2019-05-02T00:42:35.549Z,0.00
2019-05-02T00:43:36.422Z,0.00
2019-05-02T00:44:35.507Z,0.00
2019-05-02T00:45:35.495Z,0.00
2019-05-02T00:46:36.202Z,0.00
2019-05-02T00:47:35.571Z,0.00
2019-05-02T00:48:35.453Z,0.00
2019-05-02T00:49:35.781Z,0.00
2019-05-02T00:50:35.430Z,0.00
2019-05-02T00:51:35.407Z,0.00
2019-05-02T00:52:36.705Z,0.00
2019-05-02T00:53:35.401Z,0.00
2019-05-02T00:54:35.399Z,0.00
2019-05-02T00:55:35.569Z,0.00
2019-05-02T00:56:35.371Z,0.00
2019-05-02T00:57:35.377Z,0.00
2019-05-02T00:58:35.397Z,0.00
2019-05-02T00:59:37.843Z,0.00
2019-05-02T01:00:36.363Z,0.00
2019-05-02T01:01:35.299Z,0.00
2019-05-02T01:02:35.988Z,0.00
2019-05-02T01:03:35.277Z,0.00
2019-05-02T01:04:35.267Z,0.00
2019-05-02T01:05:38.523Z,0.00
2019-05-02T01:06:35.244Z,0.00
2019-05-02T01:07:35.275Z,0.00
2019-05-02T01:08:35.691Z,0.00
2019-05-02T01:09:35.212Z,0.00
2019-05-02T01:10:35.329Z,0.00
2019-05-02T01:11:35.191Z,0.00
2019-05-02T01:12:39.943Z,0.00
2019-05-02T01:13:36.179Z,0.00
2019-05-02T01:14:35.168Z,0.00
2019-05-02T01:15:39.070Z,0.00
2019-05-02T01:16:36.144Z,0.00
2019-05-02T01:17:35.213Z,0.00
2019-05-02T01:18:37.137Z,0.00
2019-05-02T01:19:36.095Z,0.00
2019-05-02T01:20:35.170Z,0.00
2019-05-02T01:21:38.913Z,0.00
2019-05-02T01:22:36.101Z,0.00
2019-05-02T01:23:35.148Z,0.00
2019-05-02T01:24:39.892Z,0.00
2019-05-02T01:25:36.034Z,0.00
2019-05-02T01:26:37.801Z,0.00
2019-05-02T01:27:36.030Z,0.00
2019-05-02T01:28:35.995Z,0.00
2019-05-02T01:29:35.011Z,0.00
2019-05-02T01:30:37.140Z,0.00
2019-05-02T01:31:35.999Z,0.00
2019-05-02T01:32:35.001Z,0.00
2019-05-02T01:33:36.803Z,0.00
2019-05-02T01:34:35.949Z,0.00
2019-05-02T01:35:34.951Z,0.00
2019-05-02T01:36:36.678Z,0.00
2019-05-02T01:37:34.900Z,0.00
2019-05-02T01:38:36.240Z,0.00
2019-05-02T01:39:37.949Z,0.00
2019-05-02T01:40:35.941Z,0.00
2019-05-02T01:41:36.229Z,0.00
2019-05-02T01:42:39.933Z,0.00
2019-05-02T01:43:34.836Z,0.00
2019-05-02T01:44:36.324Z,0.00
2019-05-02T01:45:34.817Z,0.00
2019-05-02T01:46:36.242Z,0.00
2019-05-02T01:47:35.873Z,0.00
2019-05-02T01:48:34.839Z,0.00
2019-05-02T01:49:34.771Z,0.00
2019-05-02T01:50:36.287Z,0.00
2019-05-02T01:51:36.816Z,0.00
2019-05-02T01:52:36.295Z,0.00
2019-05-02T01:53:35.823Z,0.00
2019-05-02T01:54:36.291Z,0.00
2019-05-02T01:55:34.716Z,0.00
2019-05-02T01:56:36.290Z,0.00
2019-05-02T01:57:34.687Z,0.00
2019-05-02T01:58:34.683Z,0.00
2019-05-02T01:59:36.235Z,0.00
2019-05-02T02:00:35.678Z,0.00
2019-05-02T02:01:36.241Z,0.00
2019-05-02T02:02:34.626Z,0.00
2019-05-02T02:03:34.655Z,0.00
2019-05-02T02:04:34.602Z,0.00
2019-05-02T02:05:36.299Z,0.00
2019-05-02T02:06:34.604Z,0.00
2019-05-02T02:07:34.593Z,0.00
2019-05-02T02:08:34.595Z,0.00
2019-05-02T02:09:34.611Z,0.00
2019-05-02T02:10:36.341Z,0.00
2019-05-02T02:11:35.824Z,0.00
2019-05-02T02:12:34.519Z,0.00
2019-05-02T02:13:36.677Z,0.00
2019-05-02T02:14:34.519Z,0.00
2019-05-02T02:15:34.523Z,0.00
2019-05-02T02:16:35.220Z,0.00
2019-05-02T02:17:34.459Z,0.00
2019-05-02T02:18:34.509Z,0.00
2019-05-02T02:19:38.744Z,0.00
2019-05-02T02:20:34.427Z,0.00
2019-05-02T02:21:35.439Z,0.00
2019-05-02T02:22:39.058Z,0.00
2019-05-02T02:23:35.401Z,0.00
2019-05-02T02:24:34.436Z,0.00
2019-05-02T02:25:36.279Z,0.00
2019-05-02T02:26:34.363Z,0.00
2019-05-02T02:27:34.381Z,0.00
2019-05-02T02:28:34.341Z,0.00
2019-05-02T02:29:34.339Z,0.00
2019-05-02T02:30:34.404Z,0.00
2019-05-02T02:31:39.561Z,0.00
2019-05-02T02:32:35.340Z,0.00
2019-05-02T02:33:34.284Z,0.00
2019-05-02T02:34:34.278Z,0.00
2019-05-02T02:35:34.325Z,0.00
2019-05-02T02:36:35.003Z,0.00
2019-05-02T02:37:34.247Z,0.00
2019-05-02T02:38:35.402Z,0.00
2019-05-02T02:39:34.221Z,0.00
2019-05-02T02:40:35.703Z,0.00
2019-05-02T02:41:34.234Z,0.00
2019-05-02T02:42:34.266Z,0.00
2019-05-02T02:43:35.013Z,0.00
2019-05-02T02:44:39.857Z,0.00
2019-05-02T02:45:35.182Z,0.00
2019-05-02T02:46:37.980Z,0.00
2019-05-02T02:47:35.159Z,0.00
2019-05-02T02:49:35.180Z,0.00
2019-05-02T02:50:36.898Z,0.00
2019-05-02T02:51:35.087Z,0.00
2019-05-02T02:52:37.798Z,0.00
2019-05-02T02:53:35.078Z,0.00
2019-05-02T02:54:36.788Z,0.00
2019-05-02T02:55:35.049Z,0.00
2019-05-02T02:56:34.425Z,0.00
2019-05-02T02:57:36.027Z,0.00
2019-05-02T02:58:44.072Z,0.00
2019-05-02T02:59:35.034Z,0.00
2019-05-02T03:00:34.038Z,0.00
2019-05-02T03:01:33.994Z,0.00
2019-05-02T03:02:34.033Z,0.00
2019-05-02T03:03:35.344Z,0.00
2019-05-02T03:04:33.956Z,0.00
2019-05-02T03:05:33.985Z,0.00
2019-05-02T03:06:38.518Z,0.00
2019-05-02T03:07:35.011Z,0.00
2019-05-02T03:08:45.098Z,0.00
2019-05-02T03:09:34.909Z,0.00
2019-05-02T03:10:39.913Z,0.00
2019-05-02T03:11:34.890Z,0.00
2019-05-02T03:12:36.154Z,0.00
2019-05-02T03:13:51.213Z,0.00
2019-05-02T03:14:40.970Z,0.00
2019-05-02T03:15:34.825Z,0.00
2019-05-02T03:16:33.819Z,0.00
2019-05-02T03:17:33.796Z,0.00
2019-05-02T03:18:40.470Z,0.00
2019-05-02T03:19:34.790Z,0.00
2019-05-02T03:20:40.187Z,0.00
2019-05-02T03:21:34.750Z,0.00
2019-05-02T03:22:34.999Z,0.00
2019-05-02T03:23:34.784Z,0.00
2019-05-02T03:24:36.755Z,0.00
2019-05-02T03:25:50.148Z,0.00
2019-05-02T03:26:34.710Z,0.00
2019-05-02T03:27:37.268Z,0.00
2019-05-02T03:28:33.727Z,0.00
2019-05-02T03:29:40.908Z,0.00
2019-05-02T03:30:37.545Z,0.00
2019-05-02T03:31:33.674Z,0.00
2019-05-02T03:32:35.943Z,0.00
2019-05-02T03:33:51.978Z,0.00
2019-05-02T03:34:47.421Z,0.00
2019-05-02T03:35:43.318Z,0.00
2019-05-02T03:36:36.810Z,0.00
2019-05-02T03:37:33.592Z,0.00
2019-05-02T03:38:35.176Z,0.00
2019-05-02T03:39:33.645Z,0.00
2019-05-02T03:40:38.913Z,0.00
2019-05-02T03:41:34.530Z,0.00
2019-05-02T03:42:43.835Z,0.00
2019-05-02T03:43:34.556Z,0.00
2019-05-02T03:44:33.500Z,0.00
2019-05-02T03:45:40.213Z,0.00
2019-05-02T03:46:34.508Z,0.00
2019-05-02T03:47:37.118Z,0.00
2019-05-02T03:48:34.054Z,0.00
2019-05-02T03:49:33.446Z,0.00
2019-05-02T03:50:35.397Z,0.00
2019-05-02T03:51:33.485Z,0.00
2019-05-02T03:52:36.600Z,0.00
2019-05-02T03:53:34.467Z,0.00
2019-05-02T03:54:33.399Z,0.00
2019-05-02T03:55:33.946Z,0.00
2019-05-02T03:56:33.379Z,0.00
2019-05-02T03:57:36.173Z,0.00
2019-05-02T03:58:35.340Z,0.00
2019-05-02T03:59:38.612Z,0.00
2019-05-02T04:00:34.342Z,5.62
2019-05-02T04:01:34.819Z,5.62
2019-05-02T04:02:34.317Z,5.62
2019-05-02T04:03:33.877Z,5.62
2019-05-02T04:04:34.291Z,5.62
2019-05-02T04:05:33.897Z,5.62
2019-05-02T04:06:34.291Z,5.62
2019-05-02T04:07:39.758Z,5.62
2019-05-02T04:08:34.280Z,5.62
2019-05-02T04:09:38.735Z,5.62
2019-05-02T04:10:34.222Z,5.62
2019-05-02T04:11:39.150Z,11.25
2019-05-02T04:12:34.198Z,11.25
2019-05-02T04:13:36.295Z,11.25
2019-05-02T04:14:37.774Z,11.25
2019-05-02T04:15:35.003Z,11.25
2019-05-02T04:16:33.158Z,16.88
2019-05-02T04:17:35.325Z,16.88
2019-05-02T04:18:34.031Z,16.88
2019-05-02T04:19:34.787Z,16.88
2019-05-02T04:20:33.107Z,16.88
2019-05-02T04:21:33.102Z,22.50
2019-05-02T04:22:33.092Z,22.50
2019-05-02T04:23:33.119Z,22.50
2019-05-02T04:24:33.092Z,22.50
2019-05-02T04:25:33.889Z,22.50
2019-05-02T04:26:33.052Z,22.50
2019-05-02T04:27:34.067Z,28.12
2019-05-02T04:28:33.063Z,28.12
2019-05-02T04:29:33.323Z,28.12
2019-05-02T04:30:33.005Z,28.12
2019-05-02T04:31:33.863Z,28.12
2019-05-02T04:32:32.988Z,28.12
2019-05-02T04:33:36.667Z,28.12
2019-05-02T04:34:32.951Z,28.12
2019-05-02T04:35:34.886Z,33.75
2019-05-02T04:36:32.946Z,33.75
2019-05-02T04:37:34.517Z,33.75
2019-05-02T04:38:46.617Z,33.75
2019-05-02T04:39:33.899Z,33.75
2019-05-02T04:40:34.799Z,33.75
2019-05-02T04:41:34.538Z,33.75
2019-05-02T04:42:32.871Z,33.75
2019-05-02T04:43:32.892Z,33.75
2019-05-02T04:44:40.847Z,39.38
2019-05-02T04:45:47.307Z,45.00
2019-05-02T04:46:33.858Z,45.00
2019-05-02T04:47:32.833Z,50.62
2019-05-02T04:48:34.836Z,50.62
2019-05-02T04:49:35.883Z,50.62
2019-05-02T04:50:32.779Z,50.62
2019-05-02T04:51:33.322Z,50.62
2019-05-02T04:52:40.814Z,50.62
2019-05-02T04:53:40.988Z,50.62
2019-05-02T04:54:33.780Z,56.25
2019-05-02T04:55:33.607Z,56.25
2019-05-02T04:56:32.722Z,61.88
2019-05-02T04:57:36.901Z,61.88
2019-05-02T04:58:37.052Z,67.50
2019-05-02T04:59:33.692Z,61.88
2019-05-02T05:00:32.661Z,61.88
2019-05-02T05:01:41.921Z,73.12
2019-05-02T05:02:36.684Z,84.38
2019-05-02T05:03:33.684Z,78.75
2019-05-02T05:04:42.487Z,78.75
2019-05-02T05:05:33.619Z,78.75
2019-05-02T05:06:32.593Z,78.75
2019-05-02T05:07:43.512Z,73.12
2019-05-02T05:08:33.599Z,78.75
2019-05-02T05:09:32.615Z,84.38
2019-05-02T05:10:40.175Z,95.62
2019-05-02T05:11:33.541Z,101.25
2019-05-02T05:12:37.412Z,101.25
2019-05-02T05:13:33.553Z,95.62
2019-05-02T05:14:39.437Z,90.00
2019-05-02T05:15:39.788Z,90.00
2019-05-02T05:16:33.495Z,90.00
2019-05-02T05:17:34.110Z,90.00
2019-05-02T05:18:32.511Z,95.62
2019-05-02T05:19:32.914Z,95.62
2019-05-02T05:20:32.443Z,101.25
2019-05-02T05:21:32.434Z,101.25
2019-05-02T05:22:36.488Z,101.25
2019-05-02T05:23:33.470Z,106.88
2019-05-02T05:24:32.867Z,123.75
2019-05-02T05:25:33.381Z,129.38
2019-05-02T05:26:33.834Z,123.75
2019-05-02T05:27:33.369Z,123.75
2019-05-02T05:28:35.069Z,118.12
2019-05-02T05:29:33.375Z,123.75
2019-05-02T05:30:32.335Z,129.38
2019-05-02T05:31:32.317Z,140.62
2019-05-02T05:32:32.357Z,151.88
2019-05-02T05:33:32.307Z,157.50
2019-05-02T05:34:32.883Z,140.62
2019-05-02T05:35:32.293Z,146.25
2019-05-02T05:36:34.053Z,168.75
2019-05-02T05:37:32.251Z,180.00
2019-05-02T05:38:34.413Z,180.00
2019-05-02T05:39:32.260Z,163.12
2019-05-02T05:40:32.784Z,157.50
2019-05-02T05:41:32.248Z,168.75
2019-05-02T05:42:33.368Z,185.62
2019-05-02T05:43:32.201Z,174.38
2019-05-02T05:44:32.801Z,174.38
2019-05-02T05:45:32.165Z,202.50
2019-05-02T05:46:33.394Z,196.88
2019-05-02T05:47:33.147Z,196.88
2019-05-02T05:48:36.499Z,219.38
2019-05-02T05:49:35.037Z,213.75
2019-05-02T05:50:36.838Z,208.12
2019-05-02T05:51:33.102Z,236.25
2019-05-02T05:52:33.223Z,230.62
2019-05-02T05:53:33.075Z,236.25
2019-05-02T05:54:32.957Z,236.25
2019-05-02T05:55:33.087Z,230.62
2019-05-02T05:56:32.449Z,219.38
2019-05-02T05:57:32.038Z,208.12
2019-05-02T05:58:32.024Z,202.50
2019-05-02T05:59:32.256Z,208.12
2019-05-02T06:00:32.006Z,230.62
2019-05-02T06:01:34.800Z,219.38
2019-05-02T06:02:31.979Z,219.38
2019-05-02T06:03:34.073Z,225.00
2019-05-02T06:04:33.557Z,219.38
2019-05-02T06:05:38.501Z,208.12
2019-05-02T06:06:32.925Z,196.88
2019-05-02T06:07:33.083Z,202.50
2019-05-02T06:08:32.783Z,196.88
2019-05-02T06:09:32.490Z,225.00
2019-05-02T06:10:31.927Z,208.12
2019-05-02T06:11:31.920Z,230.62
2019-05-02T06:12:35.483Z,264.38
2019-05-02T06:13:33.843Z,241.88
2019-05-02T06:14:34.269Z,230.62
2019-05-02T06:15:33.891Z,270.00
2019-05-02T06:16:31.821Z,264.38
2019-05-02T06:17:46.777Z,253.12
2019-05-02T06:18:36.328Z,247.50
2019-05-02T06:19:32.804Z,247.50
2019-05-02T06:20:32.036Z,315.00
2019-05-02T06:21:31.758Z,286.88
2019-05-02T06:22:31.743Z,253.12
2019-05-02T06:23:36.295Z,247.50
2019-05-02T06:24:34.008Z,241.88
2019-05-02T06:25:36.714Z,270.00
2019-05-02T06:26:31.705Z,253.12
2019-05-02T06:27:31.695Z,236.25
2019-05-02T06:28:36.411Z,247.50
2019-05-02T06:29:32.737Z,241.88
2019-05-02T06:30:32.382Z,258.75
2019-05-02T06:31:31.642Z,320.62
2019-05-02T06:32:31.663Z,343.12
2019-05-02T06:33:32.398Z,315.00
2019-05-02T06:34:32.299Z,331.88
2019-05-02T06:35:33.315Z,320.62
2019-05-02T06:36:32.049Z,292.50
2019-05-02T06:37:31.577Z,331.88
2019-05-02T06:38:31.567Z,371.25
2019-05-02T06:39:32.160Z,343.12
2019-05-02T06:40:31.572Z,354.38
2019-05-02T06:41:31.562Z,455.62
2019-05-02T06:42:32.691Z,416.25
2019-05-02T06:43:31.515Z,466.88
2019-05-02T06:44:31.572Z,450.00
2019-05-02T06:45:32.219Z,399.38
2019-05-02T06:46:32.490Z,444.38
2019-05-02T06:47:31.538Z,393.75
2019-05-02T06:48:31.452Z,348.75
2019-05-02T06:49:31.471Z,382.50
2019-05-02T06:50:33.391Z,348.75
2019-05-02T06:51:32.431Z,365.62
2019-05-02T06:52:32.896Z,348.75
2019-05-02T06:53:31.432Z,360.00
2019-05-02T06:54:31.427Z,354.38
2019-05-02T06:55:36.215Z,331.88
2019-05-02T06:56:32.379Z,337.50
2019-05-02T06:57:31.354Z,354.38
2019-05-02T06:58:31.393Z,399.38
2019-05-02T06:59:31.385Z,399.38
2019-05-02T07:00:39.878Z,393.75
2019-05-02T07:01:32.315Z,393.75
2019-05-02T07:02:33.670Z,365.62
2019-05-02T07:03:31.321Z,360.00
2019-05-02T07:04:31.323Z,376.88
2019-05-02T07:05:31.269Z,444.38
2019-05-02T07:06:42.102Z,506.25
2019-05-02T07:07:36.880Z,427.50
2019-05-02T07:08:31.443Z,410.62
2019-05-02T07:09:40.471Z,427.50
2019-05-02T07:10:44.071Z,472.50
2019-05-02T07:11:33.307Z,495.00
2019-05-02T07:12:32.806Z,444.38
2019-05-02T07:13:31.210Z,438.75
2019-05-02T07:14:31.235Z,511.88
2019-05-02T07:15:33.456Z,540.00
2019-05-02T07:16:39.045Z,523.12
2019-05-02T07:17:32.252Z,517.50
2019-05-02T07:18:31.134Z,523.12
2019-05-02T07:19:31.162Z,551.25
2019-05-02T07:20:35.266Z,562.50
2019-05-02T07:21:32.105Z,506.25
2019-05-02T07:22:33.111Z,528.75
2019-05-02T07:23:32.068Z,613.12
2019-05-02T07:24:32.932Z,551.25
2019-05-02T07:25:31.197Z,500.62
2019-05-02T07:26:31.071Z,500.62
2019-05-02T07:27:33.739Z,466.88
2019-05-02T07:28:31.071Z,466.88
2019-05-02T07:29:31.054Z,523.12
2019-05-02T07:30:35.097Z,607.50
2019-05-02T07:31:32.062Z,613.12
2019-05-02T07:32:30.986Z,618.75
2019-05-02T07:33:32.390Z,601.88
2019-05-02T07:34:32.037Z,680.62
2019-05-02T07:35:31.060Z,613.12
2019-05-02T07:36:36.171Z,613.12
2019-05-02T07:37:31.951Z,641.25
2019-05-02T07:38:30.921Z,641.25
2019-05-02T07:39:30.930Z,821.25
2019-05-02T07:40:30.894Z,562.50
2019-05-02T07:41:30.896Z,579.38
2019-05-02T07:42:30.860Z,669.38
2019-05-02T07:43:30.920Z,630.00
2019-05-02T07:44:32.554Z,590.62
2019-05-02T07:45:30.889Z,556.88
2019-05-02T07:46:30.881Z,630.00
2019-05-02T07:47:34.556Z,568.12
2019-05-02T07:48:31.876Z,562.50
2019-05-02T07:49:32.242Z,601.88
2019-05-02T07:50:30.769Z,618.75
2019-05-02T07:51:30.785Z,568.12
2019-05-02T07:52:33.757Z,517.50
2019-05-02T07:53:30.821Z,495.00
2019-05-02T07:54:30.931Z,500.62
2019-05-02T07:55:35.272Z,624.38
2019-05-02T07:56:33.283Z,686.25
2019-05-02T07:57:32.307Z,585.00
2019-05-02T07:58:30.867Z,556.88
2019-05-02T07:59:30.719Z,618.75
2019-05-02T08:00:32.059Z,731.25
2019-05-02T08:01:31.815Z,731.25
2019-05-02T08:02:30.688Z,939.38
2019-05-02T08:03:33.553Z,821.25
2019-05-02T08:04:31.135Z,697.50
2019-05-02T08:05:31.458Z,590.62
2019-05-02T08:06:35.459Z,568.12
2019-05-02T08:07:34.347Z,663.75
2019-05-02T08:08:31.895Z,804.38
2019-05-02T08:09:30.682Z,731.25
2019-05-02T08:10:30.581Z,950.62
2019-05-02T08:11:37.162Z,1040.62
2019-05-02T08:12:31.797Z,652.50
2019-05-02T08:13:32.372Z,613.12
2019-05-02T08:14:34.600Z,568.12
2019-05-02T08:15:31.522Z,686.25
2019-05-02T08:16:30.529Z,894.38
2019-05-02T08:17:30.479Z,675.00
2019-05-02T08:18:31.657Z,669.38
2019-05-02T08:19:30.490Z,635.62
2019-05-02T08:20:30.466Z,556.88
2019-05-02T08:21:32.627Z,562.50
2019-05-02T08:22:30.446Z,669.38
2019-05-02T08:23:30.500Z,618.75
2019-05-02T08:24:33.161Z,562.50
2019-05-02T08:25:31.471Z,607.50
2019-05-02T08:26:30.390Z,720.00
2019-05-02T08:27:34.799Z,810.00
2019-05-02T08:28:31.444Z,641.25
2019-05-02T08:29:30.803Z,742.50
2019-05-02T08:30:30.374Z,855.00
2019-05-02T08:31:30.395Z,787.50
2019-05-02T08:32:30.307Z,568.12
2019-05-02T08:33:34.609Z,472.50
2019-05-02T08:34:31.298Z,450.00
2019-05-02T08:35:30.300Z,455.62
2019-05-02T08:36:30.280Z,500.62
2019-05-02T08:37:30.362Z,613.12
2019-05-02T08:38:30.233Z,736.88
2019-05-02T08:39:33.749Z,967.50
2019-05-02T08:40:30.245Z,1102.50
2019-05-02T08:41:30.212Z,922.50
2019-05-02T08:42:32.547Z,1018.12
2019-05-02T08:43:30.197Z,742.50
2019-05-02T08:44:30.164Z,720.00
2019-05-02T08:45:33.118Z,798.75
2019-05-02T08:46:31.159Z,911.25
2019-05-02T08:47:30.580Z,1018.12
2019-05-02T08:48:30.131Z,1192.50
2019-05-02T08:49:30.111Z,2407.50
2019-05-02T08:50:31.955Z,1513.12
2019-05-02T08:51:30.091Z,2176.88
2019-05-02T08:52:30.070Z,1192.50
2019-05-02T08:53:30.061Z,1012.50
2019-05-02T08:54:32.815Z,956.25
2019-05-02T08:55:30.148Z,1040.62
2019-05-02T08:56:30.036Z,1035.00
2019-05-02T08:57:34.167Z,1096.88
2019-05-02T08:58:30.015Z,984.38
2019-05-02T08:59:29.999Z,1175.62
2019-05-02T09:00:32.128Z,1243.12
2019-05-02T09:01:35.199Z,1147.50
2019-05-02T09:02:40.812Z,984.38
2019-05-02T09:03:38.953Z,1164.38
2019-05-02T09:04:30.939Z,1057.50
2019-05-02T09:05:29.971Z,922.50
2019-05-02T09:06:29.917Z,888.75
2019-05-02T09:07:31.662Z,1198.12
2019-05-02T09:08:30.966Z,2593.12
2019-05-02T09:09:29.900Z,1546.88
2019-05-02T09:10:37.131Z,2221.88
2019-05-02T09:11:30.879Z,1580.62
2019-05-02T09:12:31.576Z,2902.50
2019-05-02T09:13:29.862Z,2919.38
2019-05-02T09:14:32.067Z,3290.62
2019-05-02T09:15:31.979Z,3335.62
2019-05-02T09:16:30.954Z,3285.00
2019-05-02T09:17:37.669Z,1687.50
2019-05-02T09:18:38.602Z,1940.62
2019-05-02T09:19:34.545Z,3088.12
2019-05-02T09:20:31.554Z,2649.38
2019-05-02T09:21:34.270Z,1811.25
2019-05-02T09:22:32.720Z,1631.25
2019-05-02T09:23:34.993Z,2559.38
2019-05-02T09:24:32.582Z,2947.50
2019-05-02T09:25:29.751Z,2992.50
2019-05-02T09:26:36.055Z,2531.25
2019-05-02T09:27:31.828Z,2407.50
2019-05-02T09:28:29.671Z,3076.88
2019-05-02T09:29:29.677Z,3065.62
2019-05-02T09:30:29.679Z,2958.75
2019-05-02T09:31:29.663Z,2981.25
2019-05-02T09:32:29.675Z,2958.75
2019-05-02T09:33:29.641Z,2385.00
2019-05-02T09:34:31.736Z,3048.75
2019-05-02T09:35:29.638Z,1248.75
2019-05-02T09:36:29.605Z,1316.25
2019-05-02T09:37:29.587Z,2840.62
2019-05-02T09:38:29.603Z,3015.00
2019-05-02T09:39:32.738Z,1715.62
2019-05-02T09:40:31.905Z,1243.12
2019-05-02T09:41:34.437Z,3178.12
2019-05-02T09:42:32.368Z,3217.50
2019-05-02T09:43:34.008Z,3251.25
2019-05-02T09:44:29.513Z,3403.12
2019-05-02T09:45:33.480Z,3105.00
2019-05-02T09:46:32.452Z,3307.50
2019-05-02T09:47:35.243Z,3245.62
2019-05-02T09:48:31.916Z,2446.88
2019-05-02T09:49:29.446Z,2688.75
2019-05-02T09:50:31.426Z,2716.88
2019-05-02T09:51:29.418Z,3217.50
2019-05-02T09:52:32.181Z,3054.38
2019-05-02T09:53:29.397Z,2570.62
2019-05-02T09:54:32.359Z,2255.62
2019-05-02T09:55:31.874Z,3352.50
2019-05-02T09:56:29.371Z,3206.25
2019-05-02T09:57:29.366Z,1670.62
2019-05-02T09:58:29.339Z,1147.50
2019-05-02T09:59:30.362Z,3110.62
2019-05-02T10:00:32.353Z,3144.38
2019-05-02T10:01:31.718Z,3088.12
2019-05-02T10:02:29.302Z,3420.00
2019-05-02T10:03:29.289Z,3560.62
2019-05-02T10:04:29.451Z,2835.00
2019-05-02T10:05:29.305Z,3487.50
2019-05-02T10:06:32.073Z,2413.12
2019-05-02T10:07:29.241Z,2700.00
2019-05-02T10:08:31.932Z,3166.88
2019-05-02T10:09:29.227Z,3206.25
2019-05-02T10:10:29.286Z,3532.50
2019-05-02T10:11:29.213Z,3448.12
2019-05-02T10:12:29.197Z,3436.88
2019-05-02T10:13:29.197Z,3526.88
2019-05-02T10:14:29.192Z,2424.38
2019-05-02T10:15:29.202Z,1366.88
2019-05-02T10:16:29.175Z,3031.88
2019-05-02T10:17:29.197Z,3330.00
2019-05-02T10:18:30.346Z,3256.88
2019-05-02T10:19:30.159Z,2801.25
2019-05-02T10:20:34.082Z,3330.00
2019-05-02T10:21:31.865Z,3183.75
2019-05-02T10:22:33.794Z,3290.62
2019-05-02T10:23:32.125Z,3414.38
2019-05-02T10:24:29.155Z,3358.12
2019-05-02T10:25:30.766Z,3307.50
2019-05-02T10:26:32.942Z,3414.38
2019-05-02T10:27:29.025Z,3611.25
2019-05-02T10:28:29.039Z,3498.75
2019-05-02T10:29:29.909Z,3459.38
2019-05-02T10:30:29.038Z,3285.00
2019-05-02T10:31:35.708Z,3543.75
2019-05-02T10:32:32.042Z,3712.50
2019-05-02T10:33:33.674Z,3178.12
2019-05-02T10:34:30.059Z,3583.12
2019-05-02T10:35:36.516Z,3858.75
2019-05-02T10:36:29.994Z,3819.38
2019-05-02T10:37:32.354Z,3515.62
2019-05-02T10:38:32.363Z,3611.25
2019-05-02T10:39:36.144Z,3622.50
2019-05-02T10:40:32.009Z,3594.38
2019-05-02T10:41:33.531Z,3318.75
2019-05-02T10:42:29.869Z,3375.00
2019-05-02T10:43:28.849Z,3656.25
2019-05-02T10:44:32.689Z,3785.62
2019-05-02T10:45:31.729Z,3588.75
2019-05-02T10:46:36.018Z,3504.38
2019-05-02T10:47:29.815Z,3127.50
2019-05-02T10:48:29.404Z,3628.12
2019-05-02T10:49:28.835Z,3751.88
2019-05-02T10:50:28.787Z,3712.50
2019-05-02T10:51:28.889Z,3645.00
2019-05-02T10:52:29.986Z,3684.38
2019-05-02T10:53:29.304Z,3735.00
2019-05-02T10:54:35.294Z,3639.38
2019-05-02T10:55:29.833Z,3549.38
2019-05-02T10:56:28.758Z,3813.75
2019-05-02T10:57:28.747Z,3774.38
2019-05-02T10:58:32.005Z,3706.88
2019-05-02T10:59:29.713Z,3718.12
2019-05-02T11:00:28.711Z,2716.88
2019-05-02T11:01:28.760Z,1518.75
2019-05-02T11:02:28.662Z,4005.00
2019-05-02T11:03:28.717Z,3960.00
2019-05-02T11:04:29.404Z,1951.88
2019-05-02T11:05:28.695Z,1603.12
2019-05-02T11:06:28.843Z,3009.38
2019-05-02T11:07:28.758Z,1653.75
2019-05-02T11:08:28.600Z,1788.75
2019-05-02T11:09:29.347Z,2919.38
2019-05-02T11:10:28.576Z,2413.12
2019-05-02T11:11:32.311Z,3408.75
2019-05-02T11:12:40.717Z,1918.12
2019-05-02T11:13:28.529Z,3504.38
2019-05-02T11:14:28.527Z,2041.88
2019-05-02T11:15:28.527Z,2030.62
2019-05-02T11:16:28.541Z,2964.38
2019-05-02T11:17:28.529Z,1378.12
2019-05-02T11:18:40.359Z,1828.12
2019-05-02T11:19:29.489Z,1861.88
2019-05-02T11:20:28.457Z,1670.62
2019-05-02T11:21:28.704Z,2452.50
2019-05-02T11:22:28.436Z,3397.50
2019-05-02T11:23:28.515Z,1721.25
2019-05-02T11:24:28.435Z,1620.00
2019-05-02T11:25:28.427Z,1496.25
2019-05-02T11:26:28.462Z,2289.38
2019-05-02T11:27:28.385Z,3172.50
2019-05-02T11:28:28.371Z,1940.62
2019-05-02T11:29:28.363Z,3819.38
2019-05-02T11:30:28.456Z,3324.38
2019-05-02T11:31:28.368Z,3133.12
2019-05-02T11:32:28.338Z,2671.88
2019-05-02T11:33:28.344Z,1040.62
2019-05-02T11:34:29.023Z,1046.25
2019-05-02T11:35:28.295Z,3431.25
2019-05-02T11:36:28.335Z,2885.62
2019-05-02T11:37:28.307Z,2058.75
2019-05-02T11:38:28.654Z,2109.38
2019-05-02T11:39:41.038Z,3245.62
2019-05-02T11:40:29.383Z,3290.62
2019-05-02T11:41:28.281Z,3498.75
2019-05-02T11:42:28.284Z,3425.62
2019-05-02T11:43:28.247Z,1788.75
2019-05-02T11:44:28.194Z,3577.50
2019-05-02T11:45:29.869Z,3526.88
2019-05-02T11:46:28.247Z,3690.00
2019-05-02T11:47:28.157Z,3684.38
2019-05-02T11:48:28.182Z,3718.12
2019-05-02T11:49:28.141Z,3746.25
2019-05-02T11:50:31.941Z,3701.25
2019-05-02T11:51:29.787Z,1423.12
2019-05-02T11:52:35.642Z,3667.50
2019-05-02T11:53:29.379Z,3735.00
2019-05-02T11:54:28.313Z,3684.38
2019-05-02T11:55:29.132Z,3684.38
2019-05-02T11:56:28.121Z,3414.38
2019-05-02T11:57:30.620Z,3290.62
2019-05-02T11:58:28.062Z,3577.50
2019-05-02T11:59:29.310Z,3841.88
2019-05-02T12:00:28.041Z,3656.25
2019-05-02T12:01:35.796Z,3206.25
2019-05-02T12:02:29.001Z,3369.38
2019-05-02T12:03:32.413Z,3470.62
2019-05-02T12:04:28.989Z,3493.12
2019-05-02T12:05:31.859Z,3346.88
2019-05-02T12:06:29.026Z,3526.88
2019-05-02T12:07:28.021Z,3538.12
2019-05-02T12:08:28.064Z,2430.00
2019-05-02T12:09:27.950Z,3121.88
2019-05-02T12:10:31.961Z,3588.75
2019-05-02T12:11:28.941Z,3656.25
2019-05-02T12:12:34.320Z,3690.00
2019-05-02T12:13:28.906Z,3459.38
2019-05-02T12:14:32.797Z,2902.50
2019-05-02T12:15:28.935Z,1575.00
2019-05-02T12:16:28.641Z,2452.50
2019-05-02T12:17:27.862Z,2784.38
2019-05-02T12:18:28.129Z,2278.12
2019-05-02T12:19:27.944Z,3268.12
2019-05-02T12:20:28.581Z,3521.25
2019-05-02T12:21:46.691Z,3684.38
2019-05-02T12:22:27.824Z,2070.00
2019-05-02T12:23:27.815Z,2092.50
2019-05-02T12:24:27.777Z,2019.38
2019-05-02T12:25:27.987Z,2283.75
2019-05-02T12:26:35.374Z,1800.00
2019-05-02T12:27:27.744Z,2131.88
2019-05-02T12:28:27.742Z,2025.00
2019-05-02T12:29:27.786Z,2193.75
2019-05-02T12:30:28.985Z,2677.50
2019-05-02T12:31:28.661Z,3521.25
2019-05-02T12:32:27.974Z,2503.12
2019-05-02T12:33:27.757Z,1856.25
2019-05-02T12:34:27.768Z,2283.75
2019-05-02T12:35:27.801Z,2227.50
2019-05-02T12:36:27.794Z,1710.00
2019-05-02T12:37:28.502Z,1698.75
2019-05-02T12:38:27.701Z,1383.75
2019-05-02T12:39:27.841Z,1203.75